ADDS METAR Data INFO
IDs: Format: Raw Decoded Include TAF

Data at: 0051 UTC 22 Oct 2017

KIND 212354Z 15010KT 10SM FEW160 BKN250 19/10 A3015 RMK AO2 SLP210 T01940100 10244 20194 53005
KIND 212254Z 16007KT 10SM BKN160 BKN250 21/11 A3014 RMK AO2 SLP205 T02110111
KIND 212154Z 15009KT 10SM FEW140 BKN250 23/11 A3013 RMK AO2 SLP200 T02280111
KIND 211954Z 16012KT 10SM FEW210 SCT300 24/10 A3014 RMK AO2 SLP204 T02440100
KIND 211854Z 20011G18KT 10SM SCT210 BKN300 24/11 A3016 RMK AO2 SLP210 T02390106
KIND 211754Z 17011KT 10SM SCT210 BKN300 22/09 A3017 RMK AO2 SLP214 T02220094 10228 20117 58008
KIND 211654Z 17008KT 10SM SCT210 BKN300 19/11 A3020 RMK AO2 SLP223 T01940111
KIND 211554Z 18005KT 10SM SCT210 BKN300 18/11 A3020 RMK AO2 SLP225 T01780111
KIND 211454Z 17005KT 10SM FEW150 SCT230 16/11 A3020 RMK AO2 SLP224 T01610111 50004
KIND 211354Z 17008KT 10SM FEW150 SCT240 16/11 A3021 RMK AO2 SLP226 T01560111
KIND 211254Z 14004KT 10SM FEW150 SCT240 13/11 A3020 RMK AO2 SLP225 T01330106
KIND 211154Z 14004KT 10SM SCT220 12/09 A3019 RMK AO2 SLP221 T01170094 10139 20117 52013
KIND 211054Z 14006KT 10SM SCT220 13/10 A3017 RMK AO2 SLP214 T01280100
KIND 210954Z 14006KT 10SM SCT250 13/10 A3016 RMK AO2 SLP210 T01330100
KIND 210854Z 13006KT 10SM SCT250 13/10 A3015 RMK AO2 SLP205 T01280100 58002
KIND 210754Z 20003KT 10SM SCT250 13/09 A3016 RMK AO2 SLP209 T01330094
KIND 210654Z 16005KT 10SM SCT250 14/09 A3015 RMK AO2 SLP207 T01390094
KIND 210554Z 16004KT 10SM SCT250 13/09 A3015 RMK AO2 SLP207 T01330089 10183 20128 58001
KIND 210454Z 14005KT 10SM SCT250 14/09 A3016 RMK AO2 SLP209 T01440089 402440100
KIND 210354Z 17007KT 10SM SCT250 16/09 A3015 RMK AO2 SLP208 T01610094
KIND 210254Z 17008KT 10SM FEW250 17/09 A3016 RMK AO2 SLP209 T01720094 53001
KIND 210154Z 15006KT 10SM FEW250 16/10 A3015 RMK AO2 SLP207 T01610100
KIND 210054Z 15008KT 10SM FEW250 17/11 A3015 RMK AO2 SLP209 T01720106
KIND 202354Z 14005KT 10SM SCT250 18/09 A3015 RMK AO2 SLP210 T01830094 10244 20183 56004
KIND 202254Z 19006KT 10SM BKN250 19/09 A3016 RMK AO2 SLP210 T01940089
KIND 202154Z 20006KT 10SM BKN250 22/09 A3015 RMK AO2 SLP209 T02170094
KIND 202054Z 19009KT 10SM BKN250 24/10 A3016 RMK AO2 SLP211 T02390100 56017
KIND 201954Z 17009KT 10SM BKN250 24/09 A3018 RMK AO2 SLP215 T02390094
KIND 201854Z 20010G17KT 10SM SCT250 24/11 A3020 RMK AO2 SLP222 T02440106
KIND 201754Z 15006KT 10SM SCT250 23/11 A3022 RMK AO2 SLP229 T02330111 10233 20100 58026
KIND 201654Z 16008KT 10SM SCT250 22/11 A3025 RMK AO2 SLP241 T02220111
KIND 201554Z 00000KT 10SM FEW250 19/13 A3027 RMK AO2 SLP248 T01940128
KIND 201454Z 18003KT 10SM FEW250 17/12 A3029 RMK AO2 SLP257 T01720122 51010
KIND 201354Z 14005KT 10SM FEW250 14/11 A3029 RMK AO2 SLP257 T01390111
KIND 201254Z 13004KT 9SM FEW250 11/10 A3028 RMK AO2 SLP255 T01110100